sensor_id;sensor_type;location;lat;lon;timestamp;P1;durP1;ratioP1;P2;durP2;ratioP2
50549;SDS011;36505;52.512;13.460;2023-04-25T00:01:35;3.78;;;2.53;;
50549;SDS011;36505;52.512;13.460;2023-04-25T00:04:01;5.15;;;2.78;;
50549;SDS011;36505;52.512;13.460;2023-04-25T00:06:27;6.60;;;2.47;;
50549;SDS011;36505;52.512;13.460;2023-04-25T00:08:54;5.93;;;2.55;;
50549;SDS011;36505;52.512;13.460;2023-04-25T00:11:21;8.00;;;2.33;;
50549;SDS011;36505;52.512;13.460;2023-04-25T00:13:47;6.78;;;2.45;;
50549;SDS011;36505;52.512;13.460;2023-04-25T00:16:14;4.60;;;2.00;;
50549;SDS011;36505;52.512;13.460;2023-04-25T00:18:41;4.75;;;2.22;;
50549;SDS011;36505;52.512;13.460;2023-04-25T00:21:07;9.13;;;1.92;;
50549;SDS011;36505;52.512;13.460;2023-04-25T00:23:32;6.43;;;2.05;;
50549;SDS011;36505;52.512;13.460;2023-04-25T00:25:58;5.40;;;2.45;;
50549;SDS011;36505;52.512;13.460;2023-04-25T00:28:23;8.32;;;2.28;;
50549;SDS011;36505;52.512;13.460;2023-04-25T00:30:48;10.32;;;3.03;;
50549;SDS011;36505;52.512;13.460;2023-04-25T00:33:14;5.25;;;1.95;;
50549;SDS011;36505;52.512;13.460;2023-04-25T00:35:39;6.57;;;1.83;;
50549;SDS011;36505;52.512;13.460;2023-04-25T00:38:05;8.25;;;2.30;;
50549;SDS011;36505;52.512;13.460;2023-04-25T00:40:30;6.63;;;2.17;;
50549;SDS011;36505;52.512;13.460;2023-04-25T00:42:55;5.32;;;2.28;;
50549;SDS011;36505;52.512;13.460;2023-04-25T00:45:21;3.53;;;2.00;;
50549;SDS011;36505;52.512;13.460;2023-04-25T00:47:46;5.13;;;2.25;;
50549;SDS011;36505;52.512;13.460;2023-04-25T00:50:14;6.00;;;2.35;;
50549;SDS011;36505;52.512;13.460;2023-04-25T00:52:40;6.60;;;1.85;;
50549;SDS011;36505;52.512;13.460;2023-04-25T00:55:08;10.75;;;2.42;;
50549;SDS011;36505;52.512;13.460;2023-04-25T00:57:35;8.20;;;2.15;;
50549;SDS011;36505;52.512;13.460;2023-04-25T01:00:01;6.40;;;2.45;;
50549;SDS011;36505;52.512;13.460;2023-04-25T01:02:26;8.30;;;2.83;;
50549;SDS011;36505;52.512;13.460;2023-04-25T01:04:52;6.65;;;2.10;;
50549;SDS011;36505;52.512;13.460;2023-04-25T01:07:17;3.78;;;2.15;;
50549;SDS011;36505;52.512;13.460;2023-04-25T01:09:43;6.60;;;1.95;;
50549;SDS011;36505;52.512;13.460;2023-04-25T01:12:08;6.18;;;2.10;;
50549;SDS011;36505;52.512;13.460;2023-04-25T01:14:34;7.30;;;2.60;;
50549;SDS011;36505;52.512;13.460;2023-04-25T01:17:00;6.97;;;2.22;;
50549;SDS011;36505;52.512;13.460;2023-04-25T01:19:25;6.40;;;2.50;;
50549;SDS011;36505;52.512;13.460;2023-04-25T01:21:51;5.28;;;2.35;;
50549;SDS011;36505;52.512;13.460;2023-04-25T01:24:16;7.13;;;2.75;;
50549;SDS011;36505;52.512;13.460;2023-04-25T01:26:42;10.60;;;2.50;;
50549;SDS011;36505;52.512;13.460;2023-04-25T01:29:18;8.20;;;2.47;;
50549;SDS011;36505;52.512;13.460;2023-04-25T01:31:44;12.68;;;4.18;;
50549;SDS011;36505;52.512;13.460;2023-04-25T01:34:10;4.90;;;2.15;;
50549;SDS011;36505;52.512;13.460;2023-04-25T01:36:36;6.43;;;2.50;;
50549;SDS011;36505;52.512;13.460;2023-04-25T01:39:02;6.55;;;2.08;;
50549;SDS011;36505;52.512;13.460;2023-04-25T01:41:27;7.05;;;2.75;;
50549;SDS011;36505;52.512;13.460;2023-04-25T01:43:53;7.32;;;2.35;;
50549;SDS011;36505;52.512;13.460;2023-04-25T01:46:19;6.18;;;2.60;;
50549;SDS011;36505;52.512;13.460;2023-04-25T01:48:44;9.20;;;3.05;;
50549;SDS011;36505;52.512;13.460;2023-04-25T01:51:10;5.88;;;2.75;;
50549;SDS011;36505;52.512;13.460;2023-04-25T01:53:36;11.48;;;2.75;;
50549;SDS011;36505;52.512;13.460;2023-04-25T01:56:02;6.32;;;2.22;;
50549;SDS011;36505;52.512;13.460;2023-04-25T01:58:28;6.53;;;2.60;;
50549;SDS011;36505;52.512;13.460;2023-04-25T02:00:53;15.20;;;3.67;;
50549;SDS011;36505;52.512;13.460;2023-04-25T02:03:19;6.80;;;2.70;;
50549;SDS011;36505;52.512;13.460;2023-04-25T02:05:45;6.18;;;2.30;;
50549;SDS011;36505;52.512;13.460;2023-04-25T02:08:10;6.50;;;2.42;;
50549;SDS011;36505;52.512;13.460;2023-04-25T02:10:35;4.75;;;2.20;;
50549;SDS011;36505;52.512;13.460;2023-04-25T02:13:01;6.78;;;2.53;;
50549;SDS011;36505;52.512;13.460;2023-04-25T02:15:26;5.40;;;2.95;;
50549;SDS011;36505;52.512;13.460;2023-04-25T02:17:52;7.82;;;2.80;;
50549;SDS011;36505;52.512;13.460;2023-04-25T02:20:18;10.13;;;2.80;;
50549;SDS011;36505;52.512;13.460;2023-04-25T02:22:45;12.40;;;3.08;;
50549;SDS011;36505;52.512;13.460;2023-04-25T02:25:10;8.52;;;3.10;;
50549;SDS011;36505;52.512;13.460;2023-04-25T02:27:36;7.38;;;3.03;;
50549;SDS011;36505;52.512;13.460;2023-04-25T02:30:02;7.82;;;2.95;;
50549;SDS011;36505;52.512;13.460;2023-04-25T02:32:28;6.65;;;2.90;;
50549;SDS011;36505;52.512;13.460;2023-04-25T02:34:53;8.23;;;2.95;;
50549;SDS011;36505;52.512;13.460;2023-04-25T02:37:19;11.50;;;3.50;;
50549;SDS011;36505;52.512;13.460;2023-04-25T02:39:44;9.68;;;3.42;;
50549;SDS011;36505;52.512;13.460;2023-04-25T02:42:09;10.00;;;3.53;;
50549;SDS011;36505;52.512;13.460;2023-04-25T02:44:35;7.32;;;3.05;;
50549;SDS011;36505;52.512;13.460;2023-04-25T02:47:00;12.50;;;3.40;;
50549;SDS011;36505;52.512;13.460;2023-04-25T02:49:26;9.02;;;2.97;;
50549;SDS011;36505;52.512;13.460;2023-04-25T02:51:51;7.47;;;2.72;;
50549;SDS011;36505;52.512;13.460;2023-04-25T02:54:17;13.05;;;3.92;;
50549;SDS011;36505;52.512;13.460;2023-04-25T02:56:42;6.20;;;2.42;;
50549;SDS011;36505;52.512;13.460;2023-04-25T02:59:07;5.70;;;2.72;;
50549;SDS011;36505;52.512;13.460;2023-04-25T03:01:33;11.45;;;3.17;;
50549;SDS011;36505;52.512;13.460;2023-04-25T03:03:58;6.22;;;3.78;;
50549;SDS011;36505;52.512;13.460;2023-04-25T03:06:23;8.85;;;3.10;;
50549;SDS011;36505;52.512;13.460;2023-04-25T03:08:49;11.43;;;3.20;;
50549;SDS011;36505;52.512;13.460;2023-04-25T03:11:14;7.10;;;3.40;;
50549;SDS011;36505;52.512;13.460;2023-04-25T03:13:40;11.98;;;3.22;;
50549;SDS011;36505;52.512;13.460;2023-04-25T03:16:05;11.90;;;3.00;;
50549;SDS011;36505;52.512;13.460;2023-04-25T03:18:31;8.13;;;3.22;;
50549;SDS011;36505;52.512;13.460;2023-04-25T03:20:56;9.45;;;3.22;;
50549;SDS011;36505;52.512;13.460;2023-04-25T03:23:21;6.10;;;3.03;;
50549;SDS011;36505;52.512;13.460;2023-04-25T03:25:47;10.07;;;3.58;;
50549;SDS011;36505;52.512;13.460;2023-04-25T03:28:13;9.20;;;3.35;;
50549;SDS011;36505;52.512;13.460;2023-04-25T03:30:38;8.65;;;3.40;;
50549;SDS011;36505;52.512;13.460;2023-04-25T03:33:04;7.47;;;3.40;;
50549;SDS011;36505;52.512;13.460;2023-04-25T03:35:29;9.43;;;4.10;;
50549;SDS011;36505;52.512;13.460;2023-04-25T03:37:55;13.05;;;3.25;;
50549;SDS011;36505;52.512;13.460;2023-04-25T03:40:20;8.45;;;3.45;;
50549;SDS011;36505;52.512;13.460;2023-04-25T03:42:46;10.38;;;3.25;;
50549;SDS011;36505;52.512;13.460;2023-04-25T03:45:11;9.15;;;3.45;;
50549;SDS011;36505;52.512;13.460;2023-04-25T03:47:36;7.95;;;3.25;;
50549;SDS011;36505;52.512;13.460;2023-04-25T03:50:02;8.05;;;3.58;;
50549;SDS011;36505;52.512;13.460;2023-04-25T03:52:27;6.30;;;3.75;;
50549;SDS011;36505;52.512;13.460;2023-04-25T03:54:53;12.60;;;3.90;;
50549;SDS011;36505;52.512;13.460;2023-04-25T03:57:18;11.27;;;3.45;;
50549;SDS011;36505;52.512;13.460;2023-04-25T03:59:46;10.27;;;4.68;;
50549;SDS011;36505;52.512;13.460;2023-04-25T04:02:12;9.77;;;4.00;;
50549;SDS011;36505;52.512;13.460;2023-04-25T04:04:37;9.23;;;3.10;;
50549;SDS011;36505;52.512;13.460;2023-04-25T04:07:03;10.85;;;3.20;;
50549;SDS011;36505;52.512;13.460;2023-04-25T04:09:28;6.88;;;3.03;;
50549;SDS011;36505;52.512;13.460;2023-04-25T04:11:54;11.68;;;3.50;;
50549;SDS011;36505;52.512;13.460;2023-04-25T04:14:22;7.43;;;3.05;;
50549;SDS011;36505;52.512;13.460;2023-04-25T04:16:48;7.25;;;3.05;;
50549;SDS011;36505;52.512;13.460;2023-04-25T04:19:14;7.20;;;3.33;;
50549;SDS011;36505;52.512;13.460;2023-04-25T04:21:39;9.50;;;3.10;;
50549;SDS011;36505;52.512;13.460;2023-04-25T04:24:05;7.18;;;3.05;;
50549;SDS011;36505;52.512;13.460;2023-04-25T04:26:31;6.30;;;3.22;;
50549;SDS011;36505;52.512;13.460;2023-04-25T04:28:57;7.45;;;3.60;;
50549;SDS011;36505;52.512;13.460;2023-04-25T04:31:25;8.55;;;3.55;;
50549;SDS011;36505;52.512;13.460;2023-04-25T04:33:51;11.90;;;3.22;;
50549;SDS011;36505;52.512;13.460;2023-04-25T04:36:16;10.85;;;3.22;;
50549;SDS011;36505;52.512;13.460;2023-04-25T04:38:44;6.75;;;3.25;;
50549;SDS011;36505;52.512;13.460;2023-04-25T04:41:10;11.95;;;3.67;;
50549;SDS011;36505;52.512;13.460;2023-04-25T04:43:35;14.63;;;5.03;;
50549;SDS011;36505;52.512;13.460;2023-04-25T04:46:01;10.32;;;3.47;;
50549;SDS011;36505;52.512;13.460;2023-04-25T04:48:28;9.75;;;3.38;;
50549;SDS011;36505;52.512;13.460;2023-04-25T04:50:54;6.90;;;2.70;;
50549;SDS011;36505;52.512;13.460;2023-04-25T04:53:19;9.13;;;3.63;;
50549;SDS011;36505;52.512;13.460;2023-04-25T04:55:44;7.65;;;3.55;;
50549;SDS011;36505;52.512;13.460;2023-04-25T04:58:11;11.60;;;3.17;;
50549;SDS011;36505;52.512;13.460;2023-04-25T05:00:36;8.10;;;3.13;;
50549;SDS011;36505;52.512;13.460;2023-04-25T05:03:02;9.55;;;3.53;;
50549;SDS011;36505;52.512;13.460;2023-04-25T05:05:27;9.50;;;2.83;;
50549;SDS011;36505;52.512;13.460;2023-04-25T05:07:53;10.60;;;2.95;;
50549;SDS011;36505;52.512;13.460;2023-04-25T05:10:18;8.10;;;2.85;;
50549;SDS011;36505;52.512;13.460;2023-04-25T05:12:45;8.20;;;3.42;;
50549;SDS011;36505;52.512;13.460;2023-04-25T05:15:11;9.05;;;2.78;;
50549;SDS011;36505;52.512;13.460;2023-04-25T05:17:36;6.53;;;2.80;;
50549;SDS011;36505;52.512;13.460;2023-04-25T05:20:02;9.55;;;3.45;;
50549;SDS011;36505;52.512;13.460;2023-04-25T05:22:27;5.95;;;3.38;;
50549;SDS011;36505;52.512;13.460;2023-04-25T05:24:53;6.57;;;3.92;;
50549;SDS011;36505;52.512;13.460;2023-04-25T05:27:19;6.97;;;3.47;;
50549;SDS011;36505;52.512;13.460;2023-04-25T05:29:45;8.32;;;3.25;;
50549;SDS011;36505;52.512;13.460;2023-04-25T05:32:10;6.85;;;3.10;;
50549;SDS011;36505;52.512;13.460;2023-04-25T05:34:36;9.50;;;3.30;;
50549;SDS011;36505;52.512;13.460;2023-04-25T05:37:01;15.10;;;2.95;;
50549;SDS011;36505;52.512;13.460;2023-04-25T05:39:27;17.30;;;3.65;;
50549;SDS011;36505;52.512;13.460;2023-04-25T05:41:52;13.20;;;3.13;;
50549;SDS011;36505;52.512;13.460;2023-04-25T05:44:21;6.80;;;3.15;;
50549;SDS011;36505;52.512;13.460;2023-04-25T05:46:47;8.10;;;3.42;;
50549;SDS011;36505;52.512;13.460;2023-04-25T05:49:15;10.88;;;3.42;;
50549;SDS011;36505;52.512;13.460;2023-04-25T05:51:42;7.88;;;3.58;;
50549;SDS011;36505;52.512;13.460;2023-04-25T05:54:07;9.38;;;3.47;;
50549;SDS011;36505;52.512;13.460;2023-04-25T05:56:33;15.15;;;2.95;;
50549;SDS011;36505;52.512;13.460;2023-04-25T05:58:58;8.13;;;3.38;;
50549;SDS011;36505;52.512;13.460;2023-04-25T06:01:23;13.15;;;4.03;;
50549;SDS011;36505;52.512;13.460;2023-04-25T06:03:49;10.30;;;3.60;;
50549;SDS011;36505;52.512;13.460;2023-04-25T06:06:16;19.10;;;4.05;;
50549;SDS011;36505;52.512;13.460;2023-04-25T06:08:41;6.45;;;3.75;;
50549;SDS011;36505;52.512;13.460;2023-04-25T06:11:07;9.23;;;3.92;;
50549;SDS011;36505;52.512;13.460;2023-04-25T06:13:32;11.85;;;4.78;;
50549;SDS011;36505;52.512;13.460;2023-04-25T06:15:58;11.88;;;3.50;;
50549;SDS011;36505;52.512;13.460;2023-04-25T06:18:23;7.22;;;3.35;;
50549;SDS011;36505;52.512;13.460;2023-04-25T06:20:48;7.82;;;4.28;;
50549;SDS011;36505;52.512;13.460;2023-04-25T06:23:14;13.90;;;4.78;;
50549;SDS011;36505;52.512;13.460;2023-04-25T06:25:39;9.68;;;4.15;;
50549;SDS011;36505;52.512;13.460;2023-04-25T06:28:04;10.13;;;4.22;;
50549;SDS011;36505;52.512;13.460;2023-04-25T06:30:30;10.68;;;4.35;;
50549;SDS011;36505;52.512;13.460;2023-04-25T06:32:55;10.90;;;3.55;;
50549;SDS011;36505;52.512;13.460;2023-04-25T06:35:21;9.95;;;3.33;;
50549;SDS011;36505;52.512;13.460;2023-04-25T06:37:46;11.45;;;3.60;;
50549;SDS011;36505;52.512;13.460;2023-04-25T06:40:12;7.28;;;3.72;;
50549;SDS011;36505;52.512;13.460;2023-04-25T06:42:37;8.57;;;3.78;;
50549;SDS011;36505;52.512;13.460;2023-04-25T06:45:03;6.97;;;3.72;;
50549;SDS011;36505;52.512;13.460;2023-04-25T06:47:28;11.90;;;4.53;;
50549;SDS011;36505;52.512;13.460;2023-04-25T06:49:54;9.30;;;4.35;;
50549;SDS011;36505;52.512;13.460;2023-04-25T06:52:20;10.15;;;3.90;;
50549;SDS011;36505;52.512;13.460;2023-04-25T06:54:46;14.63;;;4.07;;
50549;SDS011;36505;52.512;13.460;2023-04-25T06:57:11;13.60;;;4.35;;
50549;SDS011;36505;52.512;13.460;2023-04-25T06:59:36;13.43;;;3.65;;
50549;SDS011;36505;52.512;13.460;2023-04-25T07:02:02;8.07;;;4.03;;
50549;SDS011;36505;52.512;13.460;2023-04-25T07:04:28;11.93;;;3.55;;
50549;SDS011;36505;52.512;13.460;2023-04-25T07:06:54;14.95;;;4.05;;
50549;SDS011;36505;52.512;13.460;2023-04-25T07:09:19;10.40;;;3.70;;
50549;SDS011;36505;52.512;13.460;2023-04-25T07:11:45;11.15;;;3.38;;
50549;SDS011;36505;52.512;13.460;2023-04-25T07:14:10;10.88;;;3.55;;
50549;SDS011;36505;52.512;13.460;2023-04-25T07:16:36;10.10;;;4.05;;
50549;SDS011;36505;52.512;13.460;2023-04-25T07:19:01;10.95;;;3.47;;
50549;SDS011;36505;52.512;13.460;2023-04-25T07:21:26;9.30;;;3.65;;
50549;SDS011;36505;52.512;13.460;2023-04-25T07:23:52;10.65;;;3.83;;
50549;SDS011;36505;52.512;13.460;2023-04-25T07:26:17;8.65;;;4.03;;
50549;SDS011;36505;52.512;13.460;2023-04-25T07:28:42;6.28;;;3.38;;
50549;SDS011;36505;52.512;13.460;2023-04-25T07:31:08;9.25;;;3.33;;
50549;SDS011;36505;52.512;13.460;2023-04-25T07:33:34;7.65;;;3.55;;
50549;SDS011;36505;52.512;13.460;2023-04-25T07:35:59;9.35;;;3.92;;
50549;SDS011;36505;52.512;13.460;2023-04-25T07:38:25;11.10;;;3.83;;
50549;SDS011;36505;52.512;13.460;2023-04-25T07:40:50;13.43;;;4.10;;
50549;SDS011;36505;52.512;13.460;2023-04-25T07:43:16;11.02;;;3.78;;
50549;SDS011;36505;52.512;13.460;2023-04-25T07:45:45;12.20;;;4.25;;
50549;SDS011;36505;52.512;13.460;2023-04-25T07:48:11;17.70;;;5.03;;
50549;SDS011;36505;52.512;13.460;2023-04-25T07:50:36;13.73;;;3.55;;
50549;SDS011;36505;52.512;13.460;2023-04-25T07:53:02;11.63;;;4.78;;
50549;SDS011;36505;52.512;13.460;2023-04-25T07:55:28;19.85;;;3.97;;
50549;SDS011;36505;52.512;13.460;2023-04-25T07:57:53;9.43;;;2.92;;
50549;SDS011;36505;52.512;13.460;2023-04-25T08:00:19;14.07;;;3.63;;
50549;SDS011;36505;52.512;13.460;2023-04-25T08:02:44;11.75;;;3.17;;
50549;SDS011;36505;52.512;13.460;2023-04-25T08:05:10;26.05;;;9.45;;
50549;SDS011;36505;52.512;13.460;2023-04-25T08:07:39;16.65;;;3.80;;
50549;SDS011;36505;52.512;13.460;2023-04-25T08:10:05;20.50;;;4.50;;
50549;SDS011;36505;52.512;13.460;2023-04-25T08:12:32;20.25;;;3.88;;
50549;SDS011;36505;52.512;13.460;2023-04-25T08:14:57;12.73;;;3.70;;
50549;SDS011;36505;52.512;13.460;2023-04-25T08:17:25;24.17;;;6.07;;
50549;SDS011;36505;52.512;13.460;2023-04-25T08:19:51;23.58;;;4.47;;
50549;SDS011;36505;52.512;13.460;2023-04-25T08:22:16;16.33;;;4.43;;
50549;SDS011;36505;52.512;13.460;2023-04-25T08:24:42;15.00;;;4.43;;
50549;SDS011;36505;52.512;13.460;2023-04-25T08:27:07;21.90;;;3.10;;
50549;SDS011;36505;52.512;13.460;2023-04-25T08:29:33;19.15;;;3.60;;
50549;SDS011;36505;52.512;13.460;2023-04-25T08:31:59;17.77;;;3.70;;
50549;SDS011;36505;52.512;13.460;2023-04-25T08:34:24;15.60;;;3.25;;
50549;SDS011;36505;52.512;13.460;2023-04-25T08:36:50;28.67;;;3.88;;
50549;SDS011;36505;52.512;13.460;2023-04-25T08:39:16;17.08;;;3.05;;
50549;SDS011;36505;52.512;13.460;2023-04-25T08:41:42;16.60;;;3.40;;
50549;SDS011;36505;52.512;13.460;2023-04-25T08:44:08;12.00;;;3.10;;
50549;SDS011;36505;52.512;13.460;2023-04-25T08:46:35;19.58;;;3.28;;
50549;SDS011;36505;52.512;13.460;2023-04-25T08:49:04;25.63;;;5.10;;
50549;SDS011;36505;52.512;13.460;2023-04-25T08:51:31;18.83;;;4.80;;
50549;SDS011;36505;52.512;13.460;2023-04-25T08:54:00;10.93;;;3.63;;
50549;SDS011;36505;52.512;13.460;2023-04-25T08:56:34;18.73;;;3.63;;
50549;SDS011;36505;52.512;13.460;2023-04-25T08:59:00;17.55;;;3.95;;
50549;SDS011;36505;52.512;13.460;2023-04-25T09:01:27;14.38;;;3.38;;
50549;SDS011;36505;52.512;13.460;2023-04-25T09:03:52;13.40;;;3.50;;
50549;SDS011;36505;52.512;13.460;2023-04-25T09:06:18;10.55;;;3.00;;
50549;SDS011;36505;52.512;13.460;2023-04-25T09:08:44;12.90;;;2.50;;
50549;SDS011;36505;52.512;13.460;2023-04-25T09:11:09;10.00;;;3.05;;
50549;SDS011;36505;52.512;13.460;2023-04-25T09:13:35;11.13;;;3.22;;
50549;SDS011;36505;52.512;13.460;2023-04-25T09:16:00;11.25;;;2.85;;
50549;SDS011;36505;52.512;13.460;2023-04-25T09:18:33;10.10;;;2.78;;
50549;SDS011;36505;52.512;13.460;2023-04-25T09:21:06;13.35;;;3.40;;
50549;SDS011;36505;52.512;13.460;2023-04-25T09:23:46;14.43;;;3.13;;
50549;SDS011;36505;52.512;13.460;2023-04-25T09:26:16;17.95;;;3.90;;
50549;SDS011;36505;52.512;13.460;2023-04-25T09:28:43;14.70;;;3.05;;
50549;SDS011;36505;52.512;13.460;2023-04-25T09:31:11;12.82;;;2.70;;
50549;SDS011;36505;52.512;13.460;2023-04-25T09:33:37;18.10;;;3.47;;
50549;SDS011;36505;52.512;13.460;2023-04-25T09:36:03;12.10;;;2.50;;
50549;SDS011;36505;52.512;13.460;2023-04-25T09:38:43;13.60;;;2.90;;
50549;SDS011;36505;52.512;13.460;2023-04-25T09:41:10;10.40;;;2.97;;
50549;SDS011;36505;52.512;13.460;2023-04-25T09:43:36;15.52;;;3.10;;
50549;SDS011;36505;52.512;13.460;2023-04-25T09:46:02;14.75;;;3.90;;
50549;SDS011;36505;52.512;13.460;2023-04-25T09:48:28;13.98;;;4.28;;
50549;SDS011;36505;52.512;13.460;2023-04-25T09:53:29;11.82;;;2.67;;
50549;SDS011;36505;52.512;13.460;2023-04-25T09:55:55;12.70;;;3.08;;
50549;SDS011;36505;52.512;13.460;2023-04-25T09:58:21;15.88;;;3.55;;
50549;SDS011;36505;52.512;13.460;2023-04-25T10:00:49;16.10;;;3.03;;
50549;SDS011;36505;52.512;13.460;2023-04-25T10:03:17;10.95;;;3.05;;
50549;SDS011;36505;52.512;13.460;2023-04-25T10:05:42;10.20;;;2.60;;
50549;SDS011;36505;52.512;13.460;2023-04-25T10:08:08;14.90;;;3.58;;
50549;SDS011;36505;52.512;13.460;2023-04-25T10:10:35;10.95;;;2.70;;
50549;SDS011;36505;52.512;13.460;2023-04-25T10:13:03;15.15;;;3.13;;
50549;SDS011;36505;52.512;13.460;2023-04-25T10:15:31;15.48;;;2.10;;
50549;SDS011;36505;52.512;13.460;2023-04-25T10:18:00;9.23;;;2.72;;
50549;SDS011;36505;52.512;13.460;2023-04-25T10:20:26;13.73;;;2.85;;
50549;SDS011;36505;52.512;13.460;2023-04-25T10:22:51;10.20;;;3.13;;
50549;SDS011;36505;52.512;13.460;2023-04-25T10:25:21;8.90;;;2.50;;
50549;SDS011;36505;52.512;13.460;2023-04-25T10:27:50;13.27;;;2.75;;
50549;SDS011;36505;52.512;13.460;2023-04-25T10:30:16;14.80;;;2.72;;
50549;SDS011;36505;52.512;13.460;2023-04-25T10:32:43;9.32;;;2.08;;
50549;SDS011;36505;52.512;13.460;2023-04-25T10:35:14;10.55;;;2.50;;
50549;SDS011;36505;52.512;13.460;2023-04-25T10:40:30;6.80;;;2.72;;
50549;SDS011;36505;52.512;13.460;2023-04-25T10:43:33;9.93;;;2.40;;
50549;SDS011;36505;52.512;13.460;2023-04-25T10:46:22;9.82;;;2.55;;
50549;SDS011;36505;52.512;13.460;2023-04-25T10:48:59;9.30;;;2.15;;
50549;SDS011;36505;52.512;13.460;2023-04-25T10:51:25;14.15;;;2.35;;
50549;SDS011;36505;52.512;13.460;2023-04-25T10:59:11;12.63;;;2.45;;
50549;SDS011;36505;52.512;13.460;2023-04-25T11:04:06;11.57;;;2.33;;
50549;SDS011;36505;52.512;13.460;2023-04-25T11:09:32;9.52;;;2.88;;
50549;SDS011;36505;52.512;13.460;2023-04-25T11:12:03;26.10;;;3.13;;
50549;SDS011;36505;52.512;13.460;2023-04-25T11:14:30;22.63;;;3.53;;
50549;SDS011;36505;52.512;13.460;2023-04-25T11:16:56;17.08;;;3.15;;
50549;SDS011;36505;52.512;13.460;2023-04-25T11:19:22;15.82;;;2.42;;
50549;SDS011;36505;52.512;13.460;2023-04-25T11:21:49;14.85;;;3.25;;
50549;SDS011;36505;52.512;13.460;2023-04-25T11:24:16;14.40;;;3.13;;
50549;SDS011;36505;52.512;13.460;2023-04-25T11:26:42;8.95;;;2.65;;
50549;SDS011;36505;52.512;13.460;2023-04-25T11:29:08;13.45;;;2.58;;
50549;SDS011;36505;52.512;13.460;2023-04-25T11:31:33;11.25;;;2.60;;
50549;SDS011;36505;52.512;13.460;2023-04-25T11:33:59;12.13;;;3.03;;
50549;SDS011;36505;52.512;13.460;2023-04-25T11:36:25;9.68;;;1.88;;
50549;SDS011;36505;52.512;13.460;2023-04-25T11:38:51;17.25;;;3.35;;
50549;SDS011;36505;52.512;13.460;2023-04-25T11:41:18;18.00;;;3.38;;
50549;SDS011;36505;52.512;13.460;2023-04-25T11:43:44;10.43;;;2.22;;
50549;SDS011;36505;52.512;13.460;2023-04-25T11:46:09;6.25;;;2.53;;
50549;SDS011;36505;52.512;13.460;2023-04-25T11:48:41;5.22;;;1.92;;
50549;SDS011;36505;52.512;13.460;2023-04-25T11:51:08;8.32;;;2.80;;
50549;SDS011;36505;52.512;13.460;2023-04-25T11:53:33;13.38;;;2.47;;
50549;SDS011;36505;52.512;13.460;2023-04-25T11:55:59;10.73;;;2.60;;
50549;SDS011;36505;52.512;13.460;2023-04-25T11:58:25;11.35;;;2.38;;
50549;SDS011;36505;52.512;13.460;2023-04-25T12:00:51;10.13;;;1.92;;
50549;SDS011;36505;52.512;13.460;2023-04-25T12:03:17;10.50;;;2.95;;
50549;SDS011;36505;52.512;13.460;2023-04-25T12:05:44;8.70;;;1.98;;
50549;SDS011;36505;52.512;13.460;2023-04-25T12:08:14;7.93;;;2.17;;
50549;SDS011;36505;52.512;13.460;2023-04-25T12:10:40;7.85;;;3.00;;
50549;SDS011;36505;52.512;13.460;2023-04-25T12:13:21;13.65;;;2.28;;
50549;SDS011;36505;52.512;13.460;2023-04-25T12:15:50;11.23;;;2.40;;
50549;SDS011;36505;52.512;13.460;2023-04-25T12:18:19;9.55;;;2.75;;
50549;SDS011;36505;52.512;13.460;2023-04-25T12:20:46;10.35;;;2.97;;
50549;SDS011;36505;52.512;13.460;2023-04-25T12:23:11;9.00;;;2.78;;
50549;SDS011;36505;52.512;13.460;2023-04-25T12:25:38;8.02;;;2.25;;
50549;SDS011;36505;52.512;13.460;2023-04-25T12:28:10;8.98;;;2.00;;
50549;SDS011;36505;52.512;13.460;2023-04-25T12:30:52;10.80;;;2.80;;
50549;SDS011;36505;52.512;13.460;2023-04-25T12:33:25;9.65;;;2.95;;
50549;SDS011;36505;52.512;13.460;2023-04-25T12:35:53;12.40;;;2.65;;
50549;SDS011;36505;52.512;13.460;2023-04-25T12:38:28;10.13;;;2.33;;
50549;SDS011;36505;52.512;13.460;2023-04-25T12:40:55;9.75;;;3.63;;
50549;SDS011;36505;52.512;13.460;2023-04-25T12:43:22;10.60;;;2.33;;
50549;SDS011;36505;52.512;13.460;2023-04-25T12:45:50;7.57;;;2.53;;
50549;SDS011;36505;52.512;13.460;2023-04-25T12:48:17;12.23;;;2.30;;
50549;SDS011;36505;52.512;13.460;2023-04-25T12:50:44;15.38;;;2.60;;
50549;SDS011;36505;52.512;13.460;2023-04-25T12:53:10;9.85;;;2.50;;
50549;SDS011;36505;52.512;13.460;2023-04-25T12:55:36;9.77;;;3.08;;
50549;SDS011;36505;52.512;13.460;2023-04-25T12:58:01;10.00;;;2.20;;
50549;SDS011;36505;52.512;13.460;2023-04-25T13:00:28;14.27;;;2.55;;
50549;SDS011;36505;52.512;13.460;2023-04-25T13:02:54;15.63;;;3.15;;
50549;SDS011;36505;52.512;13.460;2023-04-25T13:05:19;5.93;;;1.75;;
50549;SDS011;36505;52.512;13.460;2023-04-25T13:07:45;9.00;;;1.90;;
50549;SDS011;36505;52.512;13.460;2023-04-25T13:10:10;5.55;;;1.60;;
50549;SDS011;36505;52.512;13.460;2023-04-25T13:12:36;5.95;;;2.05;;
50549;SDS011;36505;52.512;13.460;2023-04-25T13:15:01;5.13;;;1.67;;
50549;SDS011;36505;52.512;13.460;2023-04-25T13:17:27;4.15;;;1.38;;
50549;SDS011;36505;52.512;13.460;2023-04-25T13:19:52;3.25;;;1.35;;
50549;SDS011;36505;52.512;13.460;2023-04-25T13:22:18;6.47;;;1.92;;
50549;SDS011;36505;52.512;13.460;2023-04-25T13:24:45;5.97;;;2.20;;
50549;SDS011;36505;52.512;13.460;2023-04-25T13:27:11;4.50;;;1.35;;
50549;SDS011;36505;52.512;13.460;2023-04-25T13:29:36;10.40;;;1.80;;
50549;SDS011;36505;52.512;13.460;2023-04-25T13:32:03;5.53;;;1.45;;
50549;SDS011;36505;52.512;13.460;2023-04-25T13:34:28;10.32;;;3.05;;
50549;SDS011;36505;52.512;13.460;2023-04-25T13:36:54;7.43;;;1.60;;
50549;SDS011;36505;52.512;13.460;2023-04-25T13:39:20;5.78;;;1.92;;
50549;SDS011;36505;52.512;13.460;2023-04-25T13:41:45;4.80;;;1.70;;
50549;SDS011;36505;52.512;13.460;2023-04-25T13:44:11;8.55;;;2.63;;
50549;SDS011;36505;52.512;13.460;2023-04-25T13:46:36;6.03;;;1.75;;
50549;SDS011;36505;52.512;13.460;2023-04-25T13:49:02;4.82;;;1.95;;
50549;SDS011;36505;52.512;13.460;2023-04-25T13:51:30;5.20;;;1.58;;
50549;SDS011;36505;52.512;13.460;2023-04-25T13:53:56;6.18;;;1.70;;
50549;SDS011;36505;52.512;13.460;2023-04-25T13:56:22;8.32;;;2.00;;
50549;SDS011;36505;52.512;13.460;2023-04-25T13:58:48;8.02;;;1.92;;
50549;SDS011;36505;52.512;13.460;2023-04-25T14:01:15;10.40;;;2.28;;
50549;SDS011;36505;52.512;13.460;2023-04-25T14:03:40;8.60;;;1.85;;
50549;SDS011;36505;52.512;13.460;2023-04-25T14:06:06;7.25;;;2.13;;
50549;SDS011;36505;52.512;13.460;2023-04-25T14:08:31;5.78;;;2.03;;
50549;SDS011;36505;52.512;13.460;2023-04-25T14:10:57;8.98;;;2.13;;
50549;SDS011;36505;52.512;13.460;2023-04-25T14:13:22;10.38;;;2.08;;
50549;SDS011;36505;52.512;13.460;2023-04-25T14:15:48;8.48;;;2.55;;
50549;SDS011;36505;52.512;13.460;2023-04-25T14:18:15;9.60;;;2.05;;
50549;SDS011;36505;52.512;13.460;2023-04-25T14:20:40;8.60;;;3.00;;
50549;SDS011;36505;52.512;13.460;2023-04-25T14:23:06;10.43;;;1.98;;
50549;SDS011;36505;52.512;13.460;2023-04-25T14:25:31;8.93;;;1.70;;
50549;SDS011;36505;52.512;13.460;2023-04-25T14:27:57;8.77;;;1.85;;
50549;SDS011;36505;52.512;13.460;2023-04-25T14:30:22;6.65;;;2.08;;
50549;SDS011;36505;52.512;13.460;2023-04-25T14:32:50;4.05;;;1.30;;
50549;SDS011;36505;52.512;13.460;2023-04-25T14:35:16;10.93;;;2.58;;
50549;SDS011;36505;52.512;13.460;2023-04-25T14:37:42;8.95;;;1.60;;
50549;SDS011;36505;52.512;13.460;2023-04-25T14:40:07;11.20;;;2.83;;